Eastport, Idaho
Current Conditions -  °F | °C
As of 8:15 AM on Wednesday 26 Nov 2014 (Local Time) from K65S Reporting Station
Light Snow Light Snow  
Wind Chill: 32°   Ceiling: 200
Heat Index: 32°   Visibility: 1.5mi
Dew Point: 32°   Wind: 0mph
Humidity: 100%   Direction: NA
Pressure: 30.15"   Gusts: NA
Location:  49°N, 116.18°W
Report Text: K65S 261615Z AUTO 00000KT 1 1/2SM -SN BKN002 BKN025 00/00 A3015 RMK AO2
Loading
Personal Weather Stations






























Interactive Weather Map New forecast layout! Learn more

10-Day Weather Forecast

Advertisements
Track Severe Weather on mobile